createdAt,value
2019-05-25T00:02:17.023Z,13.57
2019-05-25T00:04:46.385Z,13.64
2019-05-25T00:07:15.746Z,13.62
2019-05-25T00:09:48.203Z,13.60
2019-05-25T00:12:16.141Z,13.68
2019-05-25T00:14:45.305Z,13.64
2019-05-25T00:17:14.590Z,13.59
2019-05-25T00:19:43.979Z,13.62
2019-05-25T00:22:13.303Z,13.64
2019-05-25T00:24:42.633Z,13.70
2019-05-25T00:27:11.933Z,13.74
2019-05-25T00:29:41.216Z,13.81
2019-05-25T00:32:10.627Z,13.83
2019-05-25T00:34:40.011Z,13.75
2019-05-25T00:37:09.389Z,13.71
2019-05-25T00:39:38.740Z,13.77
2019-05-25T00:42:08.030Z,13.65
2019-05-25T00:44:37.460Z,13.61
2019-05-25T00:47:06.858Z,13.61
2019-05-25T00:49:36.407Z,13.49
2019-05-25T00:52:05.727Z,13.49
2019-05-25T00:54:35.068Z,13.34
2019-05-25T00:57:04.591Z,13.26
2019-05-25T00:59:34.877Z,13.25
2019-05-25T01:02:04.306Z,13.26
2019-05-25T01:04:33.608Z,13.17
2019-05-25T01:07:02.941Z,13.18
2019-05-25T01:09:32.176Z,13.21
2019-05-25T01:12:01.604Z,13.13
2019-05-25T01:14:31.008Z,13.12
2019-05-25T01:17:00.461Z,13.10
2019-05-25T01:19:29.821Z,13.02
2019-05-25T01:21:59.100Z,12.89
2019-05-25T01:24:43.191Z,12.73
2019-05-25T01:26:59.343Z,12.83
2019-05-25T01:29:28.654Z,12.57
2019-05-25T01:31:58.000Z,12.50
2019-05-25T01:34:27.489Z,12.26
2019-05-25T01:36:56.736Z,12.04
2019-05-25T01:39:26.053Z,11.96
2019-05-25T01:41:55.288Z,11.93
2019-05-25T01:44:24.597Z,11.93
2019-05-25T01:46:53.870Z,11.80
2019-05-25T01:49:23.180Z,11.75
2019-05-25T01:51:52.490Z,11.72
2019-05-25T01:54:21.788Z,11.57
2019-05-25T01:56:51.168Z,11.53
2019-05-25T01:59:20.618Z,11.67
2019-05-25T02:01:49.978Z,11.78
2019-05-25T02:04:19.355Z,11.72
2019-05-25T02:06:48.660Z,11.59
2019-05-25T02:09:18.093Z,11.34
2019-05-25T02:11:47.394Z,11.10
2019-05-25T02:14:16.683Z,10.84
2019-05-25T02:16:45.980Z,10.70
2019-05-25T02:19:15.240Z,10.56
2019-05-25T02:21:44.606Z,10.47
2019-05-25T02:24:13.876Z,10.20
2019-05-25T02:26:43.251Z,9.87
2019-05-25T02:29:12.531Z,9.62
2019-05-25T02:31:42.074Z,9.46
2019-05-25T02:34:11.366Z,9.46
2019-05-25T02:36:40.668Z,9.37
2019-05-25T02:39:09.972Z,9.13
2019-05-25T02:41:39.258Z,9.04
2019-05-25T02:44:08.700Z,9.06
2019-05-25T02:46:37.997Z,9.04
2019-05-25T02:49:07.353Z,8.97
2019-05-25T02:51:36.713Z,8.89
2019-05-25T02:54:06.090Z,8.81
2019-05-25T02:56:35.468Z,8.71
2019-05-25T02:59:04.827Z,8.74
2019-05-25T03:01:34.195Z,8.73
2019-05-25T03:04:04.058Z,8.69
2019-05-25T03:06:34.683Z,8.59
2019-05-25T03:09:06.794Z,8.28
2019-05-25T03:11:37.842Z,8.22
2019-05-25T03:14:07.259Z,8.24
2019-05-25T03:16:36.643Z,8.23
2019-05-25T03:19:06.281Z,8.22
2019-05-25T03:21:35.596Z,8.11
2019-05-25T03:24:05.500Z,8.14
2019-05-25T03:26:34.849Z,8.02
2019-05-25T03:29:04.462Z,7.90
2019-05-25T03:31:33.970Z,7.79
2019-05-25T03:34:03.294Z,7.72
2019-05-25T03:36:32.693Z,7.61
2019-05-25T03:39:01.975Z,7.64
2019-05-25T03:41:31.383Z,7.62
2019-05-25T03:44:00.606Z,7.63
2019-05-25T03:46:29.983Z,7.59
2019-05-25T03:48:59.382Z,7.58
2019-05-25T03:51:28.655Z,7.58
2019-05-25T03:53:57.906Z,7.55
2019-05-25T03:56:27.222Z,7.62
2019-05-25T03:58:56.627Z,7.52
2019-05-25T04:01:25.949Z,7.40
2019-05-25T04:03:55.206Z,7.58
2019-05-25T04:06:24.645Z,7.51
2019-05-25T04:08:54.036Z,7.57
2019-05-25T04:11:23.371Z,7.70
2019-05-25T04:13:52.619Z,7.67
2019-05-25T04:16:21.998Z,7.75
2019-05-25T04:18:51.346Z,7.87
2019-05-25T04:21:20.743Z,7.87
2019-05-25T04:23:50.061Z,7.78
2019-05-25T04:26:22.633Z,7.85
2019-05-25T04:28:50.470Z,8.03
2019-05-25T04:31:19.833Z,8.19
2019-05-25T04:33:49.123Z,8.30
2019-05-25T04:36:18.456Z,8.45
2019-05-25T04:38:47.722Z,8.63
2019-05-25T04:41:17.039Z,8.61
2019-05-25T04:43:46.341Z,8.62
2019-05-25T04:46:15.701Z,8.61
2019-05-25T04:48:45.009Z,8.67
2019-05-25T04:51:14.393Z,8.74
2019-05-25T04:53:43.628Z,9.01
2019-05-25T04:56:12.934Z,9.25
2019-05-25T04:58:42.271Z,9.44
2019-05-25T05:01:11.719Z,9.57
2019-05-25T05:03:41.131Z,9.84
2019-05-25T05:06:10.542Z,9.84
2019-05-25T05:08:39.935Z,10.12
2019-05-25T05:11:09.320Z,10.57
2019-05-25T05:13:38.582Z,11.12
2019-05-25T05:16:07.852Z,11.58
2019-05-25T05:18:37.265Z,11.90
2019-05-25T05:21:06.667Z,12.13
2019-05-25T05:23:35.820Z,12.54
2019-05-25T05:26:05.306Z,12.83
2019-05-25T05:28:34.542Z,13.06
2019-05-25T05:31:04.111Z,13.38
2019-05-25T05:33:33.580Z,13.29
2019-05-25T05:36:04.336Z,13.27
2019-05-25T05:38:34.681Z,13.62
2019-05-25T05:41:04.763Z,13.40
2019-05-25T05:43:35.813Z,13.58
2019-05-25T05:46:07.861Z,13.74
2019-05-25T05:48:40.108Z,14.27
2019-05-25T05:51:11.584Z,14.62
2019-05-25T05:53:43.981Z,14.84
2019-05-25T05:56:13.277Z,16.01
2019-05-25T05:58:42.691Z,17.22
2019-05-25T06:01:12.011Z,18.37
2019-05-25T06:03:41.289Z,18.46
2019-05-25T06:06:10.628Z,18.38
2019-05-25T06:08:39.938Z,18.92
2019-05-25T06:11:09.168Z,18.92
2019-05-25T06:13:38.530Z,19.46
2019-05-25T06:16:07.832Z,19.42
2019-05-25T06:18:37.136Z,19.15
2019-05-25T06:21:06.604Z,20.14
2019-05-25T06:23:35.801Z,20.94
2019-05-25T06:26:05.142Z,20.21
2019-05-25T06:28:34.338Z,19.76
2019-05-25T06:31:03.796Z,21.46
2019-05-25T06:33:33.037Z,20.82
2019-05-25T06:36:02.501Z,19.34
2019-05-25T06:38:31.843Z,19.15
2019-05-25T06:41:01.364Z,18.81
2019-05-25T06:43:30.659Z,18.64
2019-05-25T06:45:59.997Z,18.41
2019-05-25T06:48:29.393Z,18.47
2019-05-25T06:50:58.747Z,18.35
2019-05-25T06:53:28.165Z,17.83
2019-05-25T06:55:57.402Z,18.29
2019-05-25T06:58:26.826Z,18.01
2019-05-25T07:00:56.171Z,17.02
2019-05-25T07:03:25.527Z,16.37
2019-05-25T07:05:54.888Z,16.37
2019-05-25T07:08:24.325Z,17.98
2019-05-25T07:10:53.602Z,21.04
2019-05-25T07:13:22.969Z,21.18
2019-05-25T07:15:52.267Z,19.32
2019-05-25T07:18:21.648Z,21.30
2019-05-25T07:20:50.791Z,19.89
2019-05-25T07:23:20.062Z,18.55
2019-05-25T07:25:49.471Z,17.98
2019-05-25T07:28:18.821Z,16.87
2019-05-25T07:30:48.188Z,16.36
2019-05-25T07:33:17.564Z,16.21
2019-05-25T07:35:46.937Z,16.22
2019-05-25T07:38:16.247Z,17.75
2019-05-25T07:40:45.641Z,20.08
2019-05-25T07:43:15.024Z,19.54
2019-05-25T07:45:44.485Z,19.50
2019-05-25T07:48:13.851Z,19.24
2019-05-25T07:50:43.204Z,19.03
2019-05-25T07:53:12.456Z,17.76
2019-05-25T07:55:41.916Z,17.18
2019-05-25T07:58:17.296Z,17.47
2019-05-25T08:00:42.322Z,17.36
2019-05-25T08:03:11.582Z,16.65
2019-05-25T08:05:40.901Z,16.91
2019-05-25T08:08:10.229Z,16.99
2019-05-25T08:10:39.555Z,16.69
2019-05-25T08:13:08.887Z,16.39
2019-05-25T08:15:38.172Z,16.48
2019-05-25T08:18:07.443Z,16.75
2019-05-25T08:20:36.728Z,16.52
2019-05-25T08:23:06.098Z,16.65
2019-05-25T08:25:35.572Z,17.25
2019-05-25T08:28:05.035Z,16.79
2019-05-25T08:30:34.457Z,17.03
2019-05-25T08:33:03.939Z,17.66
2019-05-25T08:35:33.248Z,18.65
2019-05-25T08:38:02.569Z,20.68
2019-05-25T08:40:31.835Z,22.37
2019-05-25T08:43:01.374Z,23.33
2019-05-25T08:45:30.729Z,23.80
2019-05-25T08:48:00.142Z,23.19
2019-05-25T08:50:37.758Z,22.08
2019-05-25T08:53:00.512Z,20.25
2019-05-25T08:55:29.843Z,19.38
2019-05-25T08:57:59.305Z,19.15
2019-05-25T09:00:28.763Z,19.31
2019-05-25T09:02:57.984Z,18.70
2019-05-25T09:05:27.353Z,18.29
2019-05-25T09:07:56.704Z,19.16
2019-05-25T09:10:26.811Z,19.38
2019-05-25T09:12:56.259Z,20.36
2019-05-25T09:15:25.524Z,20.83
2019-05-25T09:17:54.823Z,21.28
2019-05-25T09:20:24.191Z,22.11
2019-05-25T09:22:53.769Z,22.87
2019-05-25T09:25:23.157Z,22.80
2019-05-25T09:27:52.624Z,23.23
2019-05-25T09:30:22.772Z,24.22
2019-05-25T09:32:51.995Z,26.96
2019-05-25T09:35:22.887Z,24.78
2019-05-25T09:37:52.110Z,26.04
2019-05-25T09:40:21.727Z,24.96
2019-05-25T09:42:51.043Z,25.79
2019-05-25T09:45:20.340Z,24.67
2019-05-25T09:47:49.662Z,24.63
2019-05-25T09:50:19.329Z,22.64
2019-05-25T09:52:48.752Z,22.07
2019-05-25T09:55:18.438Z,23.22
2019-05-25T09:57:47.729Z,25.27
2019-05-25T10:00:18.058Z,26.42
2019-05-25T10:02:47.463Z,27.12
2019-05-25T10:05:17.130Z,27.22
2019-05-25T10:07:46.486Z,27.11
2019-05-25T10:10:16.801Z,28.30
2019-05-25T10:12:46.021Z,30.12
2019-05-25T10:15:15.691Z,29.15
2019-05-25T10:17:45.063Z,31.00
2019-05-25T10:20:14.816Z,32.46
2019-05-25T10:22:44.142Z,31.94
2019-05-25T10:25:14.235Z,31.83
2019-05-25T10:27:43.560Z,27.47
2019-05-25T10:30:13.431Z,26.54
2019-05-25T10:32:43.170Z,28.26
2019-05-25T10:35:12.894Z,28.32
2019-05-25T10:37:42.217Z,28.69
2019-05-25T10:40:12.515Z,28.90
2019-05-25T10:42:41.867Z,29.83
2019-05-25T10:45:11.635Z,29.84
2019-05-25T10:47:41.028Z,29.75
2019-05-25T10:50:11.741Z,30.39
2019-05-25T10:52:42.137Z,29.10
2019-05-25T10:55:12.500Z,29.32
2019-05-25T10:57:41.844Z,28.22
2019-05-25T11:00:11.876Z,28.32
2019-05-25T11:02:41.064Z,28.30
2019-05-25T11:05:11.020Z,30.11
2019-05-25T11:07:40.298Z,30.09
2019-05-25T11:10:10.291Z,29.25
2019-05-25T11:12:39.703Z,30.90
2019-05-25T11:15:10.112Z,32.06
2019-05-25T11:17:39.381Z,31.77
2019-05-25T11:20:10.726Z,31.17
2019-05-25T11:22:39.993Z,31.60
2019-05-25T11:25:11.069Z,31.67
2019-05-25T11:27:40.509Z,27.70
2019-05-25T11:30:10.735Z,26.75
2019-05-25T11:32:40.156Z,24.48
2019-05-25T11:35:10.472Z,24.20
2019-05-25T11:37:39.871Z,25.49
2019-05-25T11:40:09.829Z,26.44
2019-05-25T11:42:39.265Z,28.49
2019-05-25T11:45:09.734Z,29.40
2019-05-25T11:47:39.132Z,29.37
2019-05-25T11:50:09.138Z,27.81
2019-05-25T11:52:38.751Z,29.03
2019-05-25T11:55:09.334Z,28.84
2019-05-25T11:57:38.732Z,29.02
2019-05-25T12:00:23.699Z,29.94
2019-05-25T12:02:39.944Z,29.06
2019-05-25T12:05:10.083Z,28.18
2019-05-25T12:07:41.667Z,27.81
2019-05-25T12:10:11.090Z,27.12
2019-05-25T12:12:40.403Z,26.82
2019-05-25T12:15:10.311Z,26.52
2019-05-25T12:17:39.759Z,27.08
2019-05-25T12:20:09.525Z,27.97
2019-05-25T12:22:39.075Z,29.37
2019-05-25T12:25:09.606Z,30.33
2019-05-25T12:27:38.958Z,30.72
2019-05-25T12:30:09.333Z,30.47
2019-05-25T12:32:39.118Z,29.83
2019-05-25T12:35:09.042Z,30.43
2019-05-25T12:37:38.414Z,29.50
2019-05-25T12:40:09.278Z,25.40
2019-05-25T12:42:38.607Z,27.81
2019-05-25T12:45:08.614Z,29.39
2019-05-25T12:47:37.981Z,30.31
2019-05-25T12:50:09.153Z,29.73
2019-05-25T12:52:38.559Z,28.55
2019-05-25T12:55:08.388Z,28.23
2019-05-25T12:57:37.758Z,28.96
2019-05-25T13:00:15.396Z,27.90
2019-05-25T13:02:38.249Z,27.95
2019-05-25T13:05:07.738Z,28.35
2019-05-25T13:07:37.124Z,27.60
2019-05-25T13:10:06.764Z,27.27
2019-05-25T13:12:36.090Z,27.51
2019-05-25T13:15:05.704Z,27.78
2019-05-25T13:17:35.069Z,28.51
2019-05-25T13:20:04.977Z,28.58
2019-05-25T13:22:34.219Z,29.04
2019-05-25T13:25:03.556Z,29.44
2019-05-25T13:27:32.898Z,28.43
2019-05-25T13:30:03.489Z,28.43
2019-05-25T13:32:33.131Z,28.65
2019-05-25T13:35:02.464Z,27.24
2019-05-25T13:37:31.845Z,27.93
2019-05-25T13:40:01.199Z,28.74
2019-05-25T13:42:30.470Z,28.40
2019-05-25T13:44:59.917Z,27.75
2019-05-25T13:47:29.269Z,28.34
2019-05-25T13:49:58.678Z,29.06
2019-05-25T13:52:28.010Z,28.22
2019-05-25T13:54:57.359Z,28.74
2019-05-25T13:57:26.726Z,29.24
2019-05-25T13:59:56.121Z,30.03
2019-05-25T14:02:25.451Z,28.15
2019-05-25T14:04:54.830Z,27.42
2019-05-25T14:07:24.300Z,27.73
2019-05-25T14:09:53.536Z,27.55
2019-05-25T14:12:22.812Z,27.49
2019-05-25T14:14:52.095Z,28.70
2019-05-25T14:17:21.367Z,28.27
2019-05-25T14:19:50.724Z,28.41
2019-05-25T14:22:20.017Z,27.37
2019-05-25T14:24:49.380Z,25.33
2019-05-25T14:27:18.897Z,25.27
2019-05-25T14:29:48.440Z,27.03
2019-05-25T14:32:17.716Z,26.43
2019-05-25T14:34:47.051Z,26.46
2019-05-25T14:37:16.546Z,27.96
2019-05-25T14:39:45.802Z,26.77
2019-05-25T14:42:15.151Z,25.11
2019-05-25T14:44:44.543Z,25.33
2019-05-25T14:47:13.997Z,26.23
2019-05-25T14:49:43.275Z,26.49
2019-05-25T14:52:12.770Z,26.44
2019-05-25T14:54:42.109Z,25.97
2019-05-25T14:57:11.509Z,25.45
2019-05-25T14:59:41.014Z,25.34
2019-05-25T15:02:10.310Z,25.55
2019-05-25T15:04:39.678Z,24.50
2019-05-25T15:07:09.347Z,24.66
2019-05-25T15:09:38.646Z,24.28
2019-05-25T15:12:10.855Z,24.28
2019-05-25T15:14:40.107Z,24.61
2019-05-25T15:17:09.476Z,23.86
2019-05-25T15:19:38.725Z,24.27
2019-05-25T15:22:08.225Z,24.65
2019-05-25T15:24:37.504Z,24.42
2019-05-25T15:27:06.888Z,23.93
2019-05-25T15:29:36.168Z,24.57
2019-05-25T15:32:18.925Z,25.08
2019-05-25T15:34:36.927Z,24.61
2019-05-25T15:37:06.558Z,24.13
2019-05-25T15:39:35.838Z,23.48
2019-05-25T15:42:05.252Z,22.38
2019-05-25T15:44:34.612Z,23.27
2019-05-25T15:47:04.985Z,23.28
2019-05-25T15:49:34.729Z,23.19
2019-05-25T15:52:04.153Z,22.38
2019-05-25T15:54:33.457Z,21.59
2019-05-25T15:57:02.885Z,21.10
2019-05-25T15:59:32.244Z,21.68
2019-05-25T16:02:01.791Z,21.84
2019-05-25T16:04:31.083Z,22.05
2019-05-25T16:07:00.480Z,22.36
2019-05-25T16:09:29.775Z,22.23
2019-05-25T16:11:59.167Z,21.97
2019-05-25T16:14:28.459Z,22.06
2019-05-25T16:16:57.712Z,21.94
2019-05-25T16:19:27.035Z,21.90
2019-05-25T16:21:56.362Z,21.81
2019-05-25T16:24:25.620Z,21.66
2019-05-25T16:26:54.976Z,21.55
2019-05-25T16:29:24.292Z,21.52
2019-05-25T16:31:53.573Z,21.66
2019-05-25T16:34:22.898Z,21.16
2019-05-25T16:36:52.352Z,20.80
2019-05-25T16:39:21.689Z,20.23
2019-05-25T16:41:50.967Z,19.55
2019-05-25T16:44:20.213Z,19.74
2019-05-25T16:46:49.560Z,19.86
2019-05-25T16:49:18.934Z,19.63
2019-05-25T16:51:48.240Z,19.37
2019-05-25T16:54:17.427Z,19.70
2019-05-25T16:56:47.455Z,19.71
2019-05-25T16:59:16.679Z,19.70
2019-05-25T17:01:48.521Z,19.80
2019-05-25T17:04:17.117Z,19.79
2019-05-25T17:06:46.491Z,19.95
2019-05-25T17:09:15.755Z,19.78
2019-05-25T17:11:45.308Z,19.70
2019-05-25T17:14:15.073Z,19.45
2019-05-25T17:16:44.923Z,19.36
2019-05-25T17:19:14.702Z,19.36
2019-05-25T17:21:44.409Z,19.36
2019-05-25T17:24:14.273Z,19.25
2019-05-25T17:26:43.960Z,19.17
2019-05-25T17:29:13.595Z,19.09
2019-05-25T17:31:42.892Z,18.90
2019-05-25T17:34:12.223Z,18.81
2019-05-25T17:36:41.555Z,18.73
2019-05-25T17:39:10.930Z,18.76
2019-05-25T17:41:40.259Z,18.60
2019-05-25T17:44:09.675Z,18.87
2019-05-25T17:46:40.459Z,18.97
2019-05-25T17:49:10.679Z,18.93
2019-05-25T17:51:41.419Z,18.88
2019-05-25T17:54:11.323Z,19.06
2019-05-25T17:56:40.701Z,18.99
2019-05-25T17:59:10.777Z,18.95
2019-05-25T18:01:40.134Z,18.87
2019-05-25T18:04:34.807Z,18.52
2019-05-25T18:07:04.338Z,18.45
2019-05-25T18:09:35.758Z,18.32
2019-05-25T18:12:05.374Z,18.26
2019-05-25T18:14:34.613Z,18.16
2019-05-25T18:17:03.963Z,18.18
2019-05-25T18:19:33.358Z,18.11
2019-05-25T18:22:02.672Z,18.01
2019-05-25T18:24:32.127Z,18.00
2019-05-25T18:27:01.408Z,17.97
2019-05-25T18:29:30.723Z,17.69
2019-05-25T18:32:00.068Z,17.63
2019-05-25T18:34:31.663Z,17.44
2019-05-25T18:37:01.033Z,17.35
2019-05-25T18:39:30.429Z,17.27
2019-05-25T18:41:59.738Z,17.17
2019-05-25T18:44:29.431Z,17.05
2019-05-25T18:46:59.298Z,16.90
2019-05-25T18:49:28.650Z,16.66
2019-05-25T18:51:57.849Z,16.43
2019-05-25T18:54:27.290Z,15.95
2019-05-25T18:56:56.486Z,15.83
2019-05-25T18:59:25.798Z,15.17
2019-05-25T19:01:55.057Z,15.17
2019-05-25T19:04:41.917Z,15.14
2019-05-25T19:06:55.356Z,14.99
2019-05-25T19:09:24.711Z,14.80
2019-05-25T19:11:54.008Z,14.51
2019-05-25T19:14:23.300Z,14.51
2019-05-25T19:16:52.647Z,14.32
2019-05-25T19:19:21.961Z,14.15
2019-05-25T19:21:51.303Z,14.00
2019-05-25T19:24:20.547Z,13.91
2019-05-25T19:26:50.039Z,13.71
2019-05-25T19:29:19.360Z,13.64
2019-05-25T19:31:48.929Z,13.43
2019-05-25T19:34:18.259Z,13.27
2019-05-25T19:36:47.731Z,13.04
2019-05-25T19:39:17.062Z,12.81
2019-05-25T19:41:46.558Z,12.68
2019-05-25T19:44:15.865Z,12.48
2019-05-25T19:46:45.222Z,12.48
2019-05-25T19:49:14.649Z,12.34
2019-05-25T19:51:43.987Z,12.22
2019-05-25T19:54:13.318Z,12.06
2019-05-25T19:56:42.722Z,12.00
2019-05-25T19:59:12.031Z,11.98
2019-05-25T20:01:41.373Z,11.97
2019-05-25T20:04:10.682Z,11.94
2019-05-25T20:06:40.187Z,11.82
2019-05-25T20:09:09.695Z,11.60
2019-05-25T20:11:38.977Z,11.56
2019-05-25T20:14:08.323Z,11.49
2019-05-25T20:16:37.756Z,11.36
2019-05-25T20:19:07.039Z,11.25
2019-05-25T20:21:36.487Z,11.11
2019-05-25T20:24:05.858Z,11.19
2019-05-25T20:26:35.186Z,10.98
2019-05-25T20:29:04.549Z,10.85
2019-05-25T20:31:33.859Z,10.70
2019-05-25T20:34:03.199Z,10.61
2019-05-25T20:36:32.422Z,10.55
2019-05-25T20:39:01.782Z,10.53
2019-05-25T20:41:31.267Z,10.47
2019-05-25T20:44:00.585Z,10.37
2019-05-25T20:46:30.165Z,10.47
2019-05-25T20:48:59.585Z,10.59
2019-05-25T20:51:29.004Z,10.69
2019-05-25T20:53:58.289Z,10.68
2019-05-25T20:56:27.662Z,10.69
2019-05-25T20:58:57.026Z,10.60
2019-05-25T21:01:26.373Z,10.50
2019-05-25T21:03:55.734Z,10.50
2019-05-25T21:06:25.142Z,10.45
2019-05-25T21:08:54.440Z,10.30
2019-05-25T21:11:23.771Z,10.07
2019-05-25T21:13:53.149Z,10.09
2019-05-25T21:16:22.474Z,10.02
2019-05-25T21:18:51.816Z,10.02
2019-05-25T21:21:21.145Z,9.96
2019-05-25T21:23:50.553Z,10.00
2019-05-25T21:26:19.913Z,10.05
2019-05-25T21:28:49.181Z,10.01
2019-05-25T21:31:18.512Z,9.74
2019-05-25T21:33:47.853Z,9.78
2019-05-25T21:36:17.179Z,9.60
2019-05-25T21:38:46.622Z,9.49
2019-05-25T21:41:15.938Z,9.63
2019-05-25T21:43:45.305Z,9.56
2019-05-25T21:46:14.597Z,9.43
2019-05-25T21:48:44.018Z,9.24
2019-05-25T21:51:13.279Z,9.27
2019-05-25T21:53:42.583Z,9.34
2019-05-25T21:56:11.788Z,9.28
2019-05-25T21:58:41.245Z,9.20
2019-05-25T22:01:10.675Z,9.17
2019-05-25T22:03:40.148Z,9.14
2019-05-25T22:06:23.217Z,9.05
2019-05-25T22:08:40.760Z,9.02
2019-05-25T22:11:10.170Z,8.92
2019-05-25T22:13:39.688Z,8.95
2019-05-25T22:16:09.120Z,8.93
2019-05-25T22:18:38.514Z,8.96
2019-05-25T22:21:07.823Z,8.99
2019-05-25T22:23:37.234Z,8.97
2019-05-25T22:26:06.542Z,9.06
2019-05-25T22:28:44.818Z,9.05
2019-05-25T22:31:06.713Z,8.92
2019-05-25T22:33:36.126Z,8.89
2019-05-25T22:36:05.525Z,8.79
2019-05-25T22:38:34.915Z,8.70
2019-05-25T22:41:04.441Z,8.58
2019-05-25T22:43:33.757Z,8.60
2019-05-25T22:46:03.087Z,8.58
2019-05-25T22:48:32.496Z,8.56
2019-05-25T22:51:01.758Z,8.59
2019-05-25T22:53:31.258Z,8.63
2019-05-25T22:56:00.705Z,8.61
2019-05-25T22:58:30.056Z,8.52
2019-05-25T23:00:59.403Z,8.57
2019-05-25T23:03:28.715Z,8.54
2019-05-25T23:05:57.961Z,8.55
2019-05-25T23:08:27.285Z,8.39
2019-05-25T23:10:56.562Z,8.51
2019-05-25T23:13:25.870Z,8.59
2019-05-25T23:15:55.132Z,8.48
2019-05-25T23:18:24.529Z,8.29
2019-05-25T23:20:53.816Z,8.17
2019-05-25T23:23:23.167Z,8.14
2019-05-25T23:25:52.508Z,8.18
2019-05-25T23:28:21.836Z,8.16
2019-05-25T23:30:51.218Z,8.09
2019-05-25T23:33:20.726Z,8.19
2019-05-25T23:35:50.113Z,8.15
2019-05-25T23:38:19.382Z,8.13
2019-05-25T23:41:32.904Z,8.05
2019-05-25T23:44:02.195Z,8.06
2019-05-25T23:46:31.539Z,7.95
2019-05-25T23:49:00.907Z,7.92
2019-05-25T23:51:30.209Z,7.89
2019-05-25T23:53:59.652Z,7.94
2019-05-25T23:56:28.910Z,7.98
2019-05-25T23:58:58.261Z,7.88
